createdAt,value
2023-02-28T00:05:34.822Z,15.00
2023-02-28T00:11:38.958Z,15.80
2023-02-28T00:14:40.667Z,15.90
2023-02-28T00:17:42.260Z,16.60
2023-02-28T00:20:44.028Z,16.10
2023-02-28T00:26:47.363Z,16.90
2023-02-28T00:29:49.417Z,16.40
2023-02-28T00:32:51.720Z,16.80
2023-02-28T00:35:53.447Z,15.60
2023-02-28T00:41:56.496Z,17.00
2023-02-28T00:44:58.155Z,17.80
2023-02-28T00:47:59.822Z,16.20
2023-02-28T00:51:01.882Z,17.70
2023-02-28T00:54:03.822Z,18.70
2023-02-28T01:00:08.713Z,17.00
2023-02-28T01:03:10.346Z,18.10
2023-02-28T01:09:14.380Z,17.20
2023-02-28T01:12:16.846Z,18.50
2023-02-28T01:15:18.631Z,18.10
2023-02-28T01:18:21.670Z,18.00
2023-02-28T01:21:23.408Z,18.40
2023-02-28T01:24:25.734Z,18.10
2023-02-28T01:27:27.642Z,18.60
2023-02-28T01:30:29.253Z,18.20
2023-02-28T01:33:31.316Z,19.50
2023-02-28T01:36:32.945Z,18.60
2023-02-28T01:39:34.587Z,18.80
2023-02-28T01:42:36.108Z,20.20
2023-02-28T01:45:38.210Z,19.40
2023-02-28T01:48:43.951Z,20.00
2023-02-28T01:51:48.631Z,19.00
2023-02-28T01:54:53.389Z,19.70
2023-02-28T01:58:01.470Z,20.20
2023-02-28T02:01:03.160Z,20.20
2023-02-28T02:04:05.065Z,19.60
2023-02-28T02:10:32.496Z,19.60
2023-02-28T02:14:19.188Z,20.50
2023-02-28T02:17:30.267Z,19.60
2023-02-28T02:21:05.953Z,19.60
2023-02-28T02:24:44.848Z,20.00
2023-02-28T02:28:11.436Z,18.60
2023-02-28T02:31:42.135Z,19.40
2023-02-28T02:35:30.676Z,17.80
2023-02-28T02:38:35.201Z,17.90
2023-02-28T02:41:53.229Z,17.20
2023-02-28T02:45:02.770Z,19.60
2023-02-28T02:48:07.975Z,18.50
2023-02-28T02:51:15.759Z,19.30
2023-02-28T02:54:22.046Z,19.00
2023-02-28T02:57:33.142Z,18.00
2023-02-28T03:00:44.766Z,19.00
2023-02-28T03:03:49.480Z,18.80
2023-02-28T03:06:52.325Z,19.40
2023-02-28T03:09:55.853Z,18.30
2023-02-28T03:13:27.527Z,18.10
2023-02-28T03:17:03.666Z,18.50
2023-02-28T03:20:29.201Z,19.30
2023-02-28T03:23:40.002Z,20.50
2023-02-28T03:26:45.042Z,19.30
2023-02-28T03:29:51.681Z,20.70
2023-02-28T03:32:59.511Z,19.00
2023-02-28T03:36:09.443Z,18.20
2023-02-28T03:39:57.128Z,18.40
2023-02-28T03:43:04.939Z,17.40
2023-02-28T03:46:11.427Z,18.40
2023-02-28T03:49:18.825Z,19.40
2023-02-28T03:52:24.220Z,17.10
2023-02-28T03:55:26.415Z,18.40
2023-02-28T03:58:38.786Z,18.80
2023-02-28T04:01:44.017Z,20.70
2023-02-28T04:04:45.760Z,25.00
2023-02-28T04:07:47.862Z,24.40
2023-02-28T04:10:57.332Z,25.00
2023-02-28T04:13:59.281Z,23.40
2023-02-28T04:17:04.196Z,22.10
2023-02-28T04:20:06.300Z,23.70
2023-02-28T04:23:07.958Z,23.80
2023-02-28T04:26:09.570Z,23.80
2023-02-28T04:29:13.586Z,25.30
2023-02-28T04:32:15.363Z,23.40
2023-02-28T04:35:17.006Z,23.20
2023-02-28T04:38:18.693Z,27.10
2023-02-28T04:41:20.806Z,26.20
2023-02-28T04:44:23.366Z,22.90
2023-02-28T04:47:24.944Z,26.50
2023-02-28T04:50:26.484Z,23.90
2023-02-28T04:53:29.057Z,23.90
2023-02-28T04:56:30.730Z,26.60
2023-02-28T04:59:32.464Z,27.00
2023-02-28T05:02:36.060Z,22.30
2023-02-28T05:05:37.781Z,18.70
2023-02-28T05:08:40.131Z,19.10
2023-02-28T05:11:42.455Z,18.20
2023-02-28T05:14:44.098Z,19.00
2023-02-28T05:17:45.739Z,19.40
2023-02-28T05:20:47.421Z,18.60
2023-02-28T05:23:48.948Z,18.40
2023-02-28T05:26:53.363Z,18.00
2023-02-28T05:29:54.904Z,18.00
2023-02-28T05:32:56.600Z,19.10
2023-02-28T05:35:58.169Z,30.60
2023-02-28T05:38:59.782Z,26.50
2023-02-28T05:42:01.471Z,24.30
2023-02-28T05:45:04.148Z,23.30
2023-02-28T05:48:06.099Z,21.70
2023-02-28T05:51:09.136Z,22.30
2023-02-28T05:54:12.878Z,24.60
2023-02-28T05:57:24.452Z,22.40
2023-02-28T06:00:26.542Z,25.10
2023-02-28T06:03:28.582Z,30.20
2023-02-28T06:06:30.583Z,28.50
2023-02-28T06:09:32.287Z,28.90
2023-02-28T06:12:33.895Z,29.30
2023-02-28T06:15:35.434Z,26.60
2023-02-28T06:18:37.228Z,23.30
2023-02-28T06:24:43.105Z,24.50
2023-02-28T06:27:44.929Z,23.30
2023-02-28T06:33:49.193Z,28.50
2023-02-28T06:36:52.787Z,26.50
2023-02-28T06:39:55.472Z,22.40
2023-02-28T06:42:56.977Z,22.80
2023-02-28T06:45:59.757Z,21.80
2023-02-28T06:49:01.283Z,22.00
2023-02-28T06:52:02.982Z,25.20
2023-02-28T06:55:08.723Z,21.10
2023-02-28T06:58:10.394Z,20.90
2023-02-28T07:04:13.820Z,20.40
2023-02-28T07:07:15.489Z,20.10
2023-02-28T07:10:19.694Z,21.70
2023-02-28T07:13:22.660Z,21.00
2023-02-28T07:16:25.696Z,20.70
2023-02-28T07:19:27.514Z,20.80
2023-02-28T07:25:31.034Z,19.70
2023-02-28T07:28:32.610Z,21.30
2023-02-28T07:31:34.174Z,19.60
2023-02-28T07:34:35.852Z,19.90
2023-02-28T07:37:37.467Z,20.00
2023-02-28T07:40:39.114Z,19.70
2023-02-28T07:43:40.791Z,20.00
2023-02-28T07:46:42.592Z,18.60
2023-02-28T07:52:45.738Z,18.20
2023-02-28T07:55:47.516Z,17.50
2023-02-28T07:58:49.169Z,18.70
2023-02-28T08:01:52.159Z,19.40
2023-02-28T08:07:55.473Z,17.90
2023-02-28T08:10:59.521Z,18.10
2023-02-28T08:14:01.246Z,15.40
2023-02-28T08:20:04.636Z,16.60
2023-02-28T08:23:06.150Z,16.20
2023-02-28T08:26:07.855Z,15.60
2023-02-28T08:29:09.422Z,12.50
2023-02-28T08:35:30.522Z,10.80
2023-02-28T08:41:34.712Z,8.60
2023-02-28T08:44:36.357Z,9.90
2023-02-28T08:50:39.344Z,9.30
2023-02-28T08:53:41.423Z,9.60
2023-02-28T08:56:43.187Z,8.60
2023-02-28T08:59:44.804Z,7.80
2023-02-28T09:02:47.814Z,7.50
2023-02-28T09:06:07.714Z,8.30
2023-02-28T09:09:09.601Z,8.10
2023-02-28T09:12:11.294Z,10.00
2023-02-28T09:15:12.815Z,8.90
2023-02-28T09:18:15.310Z,8.80
2023-02-28T09:21:18.747Z,9.30
2023-02-28T09:24:20.360Z,9.00
2023-02-28T09:27:21.920Z,9.50
2023-02-28T09:30:23.589Z,10.50
2023-02-28T09:33:26.303Z,10.20
2023-02-28T09:36:41.509Z,9.00
2023-02-28T09:39:45.736Z,9.40
2023-02-28T09:42:49.320Z,8.20
2023-02-28T09:45:58.306Z,8.40
2023-02-28T09:49:03.817Z,7.90
2023-02-28T09:52:10.465Z,7.80
2023-02-28T09:55:23.616Z,7.80
2023-02-28T09:58:38.481Z,8.00
2023-02-28T10:01:40.822Z,6.60
2023-02-28T10:04:58.546Z,6.70
2023-02-28T10:08:14.217Z,6.10
2023-02-28T10:11:17.605Z,6.60
2023-02-28T10:14:25.621Z,6.60
2023-02-28T10:17:29.534Z,7.20
2023-02-28T10:20:34.607Z,6.80
2023-02-28T10:23:38.065Z,6.50
2023-02-28T10:26:40.454Z,6.40
2023-02-28T10:29:47.390Z,6.10
2023-02-28T10:32:51.799Z,6.90
2023-02-28T10:35:54.149Z,6.70
2023-02-28T10:38:55.859Z,7.10
2023-02-28T10:41:57.404Z,6.50
2023-02-28T10:45:15.847Z,6.80
2023-02-28T10:48:17.495Z,9.00
2023-02-28T10:51:20.478Z,6.90
2023-02-28T10:54:37.521Z,6.70
2023-02-28T10:57:39.044Z,6.20
2023-02-28T11:00:41.084Z,7.50
2023-02-28T11:03:43.014Z,6.20
2023-02-28T11:06:44.734Z,6.70
2023-02-28T11:09:49.283Z,6.80
2023-02-28T11:12:53.306Z,7.30
2023-02-28T11:16:00.437Z,6.50
2023-02-28T11:19:02.914Z,6.20
2023-02-28T11:22:05.598Z,6.00
2023-02-28T11:25:20.529Z,6.10
2023-02-28T11:28:28.034Z,6.70
2023-02-28T11:31:30.029Z,6.00
2023-02-28T11:34:32.804Z,6.20
2023-02-28T11:37:34.489Z,6.50
2023-02-28T11:40:46.189Z,6.90
2023-02-28T11:43:59.978Z,6.20
2023-02-28T11:47:15.651Z,6.10
2023-02-28T11:50:40.967Z,6.70
2023-02-28T11:53:53.084Z,6.90
2023-02-28T11:57:09.406Z,6.90
2023-02-28T12:00:54.037Z,7.00
2023-02-28T12:04:33.606Z,7.70
2023-02-28T12:08:00.373Z,7.20
2023-02-28T12:11:20.691Z,6.60
2023-02-28T12:14:25.612Z,7.80
2023-02-28T12:17:48.947Z,7.50
2023-02-28T12:20:55.440Z,6.80
2023-02-28T12:24:09.836Z,6.90
2023-02-28T12:27:16.105Z,7.50
2023-02-28T12:30:29.959Z,7.50
2023-02-28T12:33:36.346Z,7.50
2023-02-28T12:36:38.511Z,7.00
2023-02-28T12:39:50.705Z,7.80
2023-02-28T12:42:56.411Z,8.00
2023-02-28T12:46:00.629Z,8.50
2023-02-28T12:49:07.499Z,8.00
2023-02-28T12:52:12.410Z,8.00
2023-02-28T12:55:44.180Z,8.20
2023-02-28T12:59:21.931Z,7.20
2023-02-28T13:02:42.236Z,7.90
2023-02-28T13:06:16.623Z,7.80
2023-02-28T13:09:18.919Z,8.00
2023-02-28T13:12:20.622Z,7.70
2023-02-28T13:15:26.068Z,8.20
2023-02-28T13:18:45.335Z,6.70
2023-02-28T13:21:49.903Z,8.30
2023-02-28T13:24:54.263Z,8.40
2023-02-28T13:27:57.049Z,8.50
2023-02-28T13:30:58.657Z,8.50
2023-02-28T13:37:24.393Z,8.70
2023-02-28T13:40:33.663Z,9.30
2023-02-28T13:44:02.173Z,9.30
2023-02-28T13:47:03.903Z,8.70
2023-02-28T13:53:51.412Z,8.90
2023-02-28T13:57:31.954Z,9.80
2023-02-28T14:00:38.846Z,9.40
2023-02-28T14:04:05.614Z,8.60
2023-02-28T14:07:07.894Z,9.30
2023-02-28T14:10:37.177Z,9.70
2023-02-28T14:13:47.048Z,9.70
2023-02-28T14:16:50.199Z,9.90
2023-02-28T14:19:51.853Z,9.50
2023-02-28T14:23:15.632Z,9.70
2023-02-28T14:26:59.000Z,9.00
2023-02-28T14:30:12.940Z,9.60
2023-02-28T14:33:26.833Z,9.60
2023-02-28T14:36:33.778Z,8.60
2023-02-28T14:39:35.518Z,9.20
2023-02-28T14:45:39.328Z,9.00
2023-02-28T14:48:40.905Z,9.30
2023-02-28T14:54:44.962Z,9.80
2023-02-28T14:57:57.914Z,10.10
2023-02-28T15:01:01.872Z,9.50
2023-02-28T15:04:06.081Z,10.30
2023-02-28T15:07:15.226Z,9.50
2023-02-28T15:10:27.200Z,10.00
2023-02-28T15:13:39.843Z,9.90
2023-02-28T15:16:43.579Z,11.50
2023-02-28T15:19:49.466Z,11.00
2023-02-28T15:22:52.296Z,10.80
2023-02-28T15:25:54.504Z,10.60
2023-02-28T15:29:13.226Z,11.10
2023-02-28T15:32:33.641Z,14.50
2023-02-28T15:35:36.071Z,13.20
2023-02-28T15:38:37.639Z,12.90
2023-02-28T15:41:39.667Z,11.60
2023-02-28T15:47:46.947Z,10.90
2023-02-28T15:50:52.925Z,10.80
2023-02-28T15:54:01.423Z,12.30
2023-02-28T15:57:06.442Z,15.80
2023-02-28T16:00:13.735Z,51.80
2023-02-28T16:03:29.024Z,30.50
2023-02-28T16:06:45.111Z,17.90
2023-02-28T16:09:46.813Z,24.30
2023-02-28T16:12:48.467Z,27.10
2023-02-28T16:15:50.008Z,55.60
2023-02-28T16:18:51.892Z,59.70
2023-02-28T16:24:55.108Z,30.80
2023-02-28T16:30:58.403Z,16.90
2023-02-28T16:34:00.196Z,29.40
2023-02-28T16:40:03.694Z,27.50
2023-02-28T16:43:08.919Z,24.70
2023-02-28T16:46:12.532Z,23.00
2023-02-28T16:49:14.107Z,20.50
2023-02-28T16:52:15.987Z,21.30
2023-02-28T16:55:17.706Z,20.50
2023-02-28T16:58:19.441Z,19.90
2023-02-28T17:01:21.165Z,20.10
2023-02-28T17:07:24.914Z,24.70
2023-02-28T17:16:32.957Z,29.00
2023-02-28T17:19:35.037Z,28.30
2023-02-28T17:25:38.255Z,26.50
2023-02-28T17:31:41.581Z,23.70
2023-02-28T17:34:44.320Z,23.30
2023-02-28T17:37:46.140Z,22.90
2023-02-28T17:43:49.370Z,25.50
2023-02-28T17:46:51.559Z,27.00
2023-02-28T17:49:53.261Z,25.60
2023-02-28T17:52:54.957Z,24.60
2023-02-28T17:55:56.776Z,24.30
2023-02-28T17:58:58.592Z,27.60
2023-02-28T18:02:01.591Z,29.80
2023-02-28T18:05:03.293Z,27.90
2023-02-28T18:08:05.037Z,23.30
2023-02-28T18:14:08.588Z,23.20
2023-02-28T18:17:11.310Z,20.30
2023-02-28T18:20:13.260Z,18.70
2023-02-28T18:23:15.275Z,18.00
2023-02-28T18:26:18.909Z,13.60
2023-02-28T18:29:26.274Z,14.80
2023-02-28T18:32:29.462Z,16.40
2023-02-28T18:35:31.864Z,17.40
2023-02-28T18:38:33.576Z,14.70
2023-02-28T18:41:35.361Z,16.00
2023-02-28T18:44:37.763Z,16.70
2023-02-28T18:47:39.491Z,16.90
2023-02-28T18:50:41.650Z,22.00
2023-02-28T18:53:44.257Z,22.70
2023-02-28T18:56:46.024Z,23.50
2023-02-28T19:02:50.227Z,32.00
2023-02-28T19:05:57.069Z,35.20
2023-02-28T19:09:01.704Z,34.80
2023-02-28T19:12:03.505Z,34.50
2023-02-28T19:15:06.581Z,40.80
2023-02-28T19:18:08.187Z,47.80
2023-02-28T19:21:12.833Z,48.30
2023-02-28T19:24:14.513Z,37.70
2023-02-28T19:27:16.382Z,38.20
2023-02-28T19:30:18.066Z,42.00
2023-02-28T19:33:20.586Z,42.60
2023-02-28T19:36:22.363Z,40.10
2023-02-28T19:42:25.723Z,32.90
2023-02-28T19:45:27.570Z,34.80
2023-02-28T19:51:31.125Z,39.80
2023-02-28T19:54:33.306Z,49.50
2023-02-28T19:57:35.238Z,59.90
2023-02-28T20:03:38.860Z,54.70
2023-02-28T20:06:40.635Z,54.20
2023-02-28T20:09:42.360Z,47.70
2023-02-28T20:12:44.264Z,62.70
2023-02-28T20:15:48.724Z,59.00
2023-02-28T20:18:51.434Z,58.80
2023-02-28T20:21:54.003Z,58.40
2023-02-28T20:24:56.622Z,58.00
2023-02-28T20:27:58.367Z,57.60
2023-02-28T20:31:02.819Z,55.60
2023-02-28T20:34:05.318Z,54.40
2023-02-28T20:37:12.777Z,53.20
2023-02-28T20:40:14.643Z,49.10
2023-02-28T20:46:17.908Z,49.90
2023-02-28T20:52:21.324Z,50.30
2023-02-28T20:55:23.061Z,64.60
2023-02-28T20:58:26.413Z,51.20
2023-02-28T21:01:29.414Z,52.30
2023-02-28T21:04:31.262Z,50.30
2023-02-28T21:07:32.996Z,51.00
2023-02-28T21:10:38.780Z,47.60
2023-02-28T21:13:41.812Z,47.80
2023-02-28T21:16:43.942Z,47.30
2023-02-28T21:19:46.212Z,41.90
2023-02-28T21:22:48.737Z,38.90
2023-02-28T21:25:50.560Z,34.80
2023-02-28T21:31:57.937Z,33.50
2023-02-28T21:38:01.013Z,39.10
2023-02-28T21:41:12.355Z,38.50
2023-02-28T21:44:14.555Z,39.30
2023-02-28T21:47:16.253Z,39.20
2023-02-28T21:50:17.961Z,40.60
2023-02-28T21:53:19.580Z,38.40
2023-02-28T21:56:25.422Z,36.60
2023-02-28T21:59:27.534Z,36.70
2023-02-28T22:02:30.380Z,37.80
2023-02-28T22:05:32.069Z,42.30
2023-02-28T22:08:33.848Z,38.80
2023-02-28T22:11:37.267Z,41.80
2023-02-28T22:14:39.821Z,39.70
2023-02-28T22:17:41.979Z,39.90
2023-02-28T22:20:43.522Z,41.30
2023-02-28T22:23:45.950Z,36.90
2023-02-28T22:26:49.715Z,36.40
2023-02-28T22:29:51.351Z,37.70
2023-02-28T22:32:52.983Z,37.80
2023-02-28T22:35:54.896Z,38.30
2023-02-28T22:38:57.400Z,37.80
2023-02-28T22:41:59.063Z,39.30
2023-02-28T22:45:00.666Z,46.80
2023-02-28T22:48:04.258Z,48.20
2023-02-28T22:51:10.619Z,48.10
2023-02-28T22:54:12.798Z,53.80
2023-02-28T22:57:14.531Z,50.20
2023-02-28T23:00:16.594Z,51.50
2023-02-28T23:03:18.168Z,52.80
2023-02-28T23:06:42.041Z,49.30
2023-02-28T23:09:43.637Z,51.30
2023-02-28T23:12:45.180Z,48.90
2023-02-28T23:15:47.427Z,47.00
2023-02-28T23:18:49.417Z,51.10
2023-02-28T23:21:51.101Z,52.30
2023-02-28T23:24:52.669Z,53.00
2023-02-28T23:27:54.333Z,55.00
2023-02-28T23:30:55.870Z,58.50
2023-02-28T23:33:57.659Z,57.70
2023-02-28T23:37:01.316Z,54.70
2023-02-28T23:40:04.673Z,50.20
2023-02-28T23:43:06.242Z,48.30
2023-02-28T23:46:08.904Z,41.50
2023-02-28T23:49:10.718Z,44.20
2023-02-28T23:55:14.049Z,36.60
2023-02-28T23:58:15.996Z,34.90
